createdAt,value
2022-08-05T00:00:50.317Z,4.07
2022-08-05T00:03:17.662Z,3.80
2022-08-05T00:06:05.447Z,3.70
2022-08-05T00:08:35.420Z,4.70
2022-08-05T00:11:05.310Z,4.15
2022-08-05T00:13:53.058Z,3.85
2022-08-05T00:16:36.214Z,4.53
2022-08-05T00:19:08.135Z,4.53
2022-08-05T00:21:35.928Z,4.78
2022-08-05T00:24:09.940Z,7.00
2022-08-05T00:26:38.056Z,4.90
2022-08-05T00:29:04.908Z,3.85
2022-08-05T00:31:54.378Z,4.47
2022-08-05T00:34:53.691Z,4.60
2022-08-05T00:37:10.519Z,3.97
2022-08-05T00:39:44.168Z,3.80
2022-08-05T00:42:34.155Z,4.03
2022-08-05T00:45:01.575Z,5.72
2022-08-05T00:47:52.945Z,4.57
2022-08-05T00:50:15.848Z,4.00
2022-08-05T00:52:45.521Z,5.95
2022-08-05T00:55:13.592Z,5.25
2022-08-05T00:57:57.879Z,3.70
2022-08-05T01:00:27.823Z,4.00
2022-08-05T01:02:55.212Z,5.07
2022-08-05T01:05:23.242Z,4.20
2022-08-05T01:08:41.410Z,4.18
2022-08-05T01:10:51.605Z,3.87
2022-08-05T01:13:27.471Z,4.40
2022-08-05T01:16:21.026Z,4.65
2022-08-05T01:18:57.454Z,4.18
2022-08-05T01:21:51.311Z,4.55
2022-08-05T01:24:41.240Z,4.32
2022-08-05T01:27:22.131Z,5.90
2022-08-05T01:29:52.712Z,3.80
2022-08-05T01:32:27.620Z,4.10
2022-08-05T01:35:00.707Z,5.60
2022-08-05T01:37:44.591Z,4.10
2022-08-05T01:40:12.947Z,5.13
2022-08-05T01:42:42.739Z,3.95
2022-08-05T01:45:10.512Z,4.85
2022-08-05T01:47:43.120Z,4.57
2022-08-05T01:50:16.011Z,5.07
2022-08-05T01:52:50.145Z,5.73
2022-08-05T01:55:20.233Z,5.90
2022-08-05T01:58:11.345Z,4.80
2022-08-05T02:00:39.572Z,4.10
2022-08-05T02:03:24.012Z,3.75
2022-08-05T02:05:53.627Z,3.60
2022-08-05T02:08:30.897Z,4.05
2022-08-05T02:11:04.559Z,4.00
2022-08-05T02:13:48.637Z,6.53
2022-08-05T02:16:27.585Z,4.85
2022-08-05T02:19:11.707Z,4.55
2022-08-05T02:21:49.110Z,4.47
2022-08-05T02:24:23.066Z,4.72
2022-08-05T02:26:54.791Z,4.35
2022-08-05T02:29:58.244Z,4.85
2022-08-05T02:32:12.691Z,4.65
2022-08-05T02:34:54.758Z,4.70
2022-08-05T02:37:23.779Z,5.20
2022-08-05T02:39:53.154Z,4.55
2022-08-05T02:42:27.637Z,5.03
2022-08-05T02:44:55.906Z,4.72
2022-08-05T02:47:23.494Z,6.13
2022-08-05T02:49:51.561Z,5.93
2022-08-05T02:52:30.233Z,5.10
2022-08-05T02:55:01.980Z,4.13
2022-08-05T02:58:10.222Z,4.80
2022-08-05T03:00:20.489Z,6.63
2022-08-05T03:02:48.605Z,5.25
2022-08-05T03:05:16.053Z,5.13
2022-08-05T03:08:06.733Z,6.23
2022-08-05T03:10:30.806Z,6.25
2022-08-05T03:15:24.287Z,3.90
2022-08-05T03:17:56.002Z,4.55
2022-08-05T03:20:24.836Z,3.50
2022-08-05T03:22:53.068Z,4.47
2022-08-05T03:25:33.724Z,4.55
2022-08-05T03:28:11.064Z,5.03
2022-08-05T03:30:41.293Z,4.78
2022-08-05T03:33:09.568Z,4.65
2022-08-05T03:35:41.443Z,4.20
2022-08-05T03:38:14.563Z,4.20
2022-08-05T03:40:45.051Z,3.87
2022-08-05T03:43:58.376Z,5.00
2022-08-05T03:46:01.921Z,4.63
2022-08-05T03:48:29.519Z,5.65
2022-08-05T03:52:39.331Z,5.10
2022-08-05T03:55:34.284Z,5.00
2022-08-05T03:56:58.965Z,4.47
2022-08-05T03:59:46.857Z,4.13
2022-08-05T04:02:37.723Z,5.53
2022-08-05T04:05:05.481Z,4.95
2022-08-05T04:07:57.287Z,5.47
2022-08-05T04:10:27.938Z,4.60
2022-08-05T04:12:56.317Z,4.63
2022-08-05T04:15:27.748Z,4.55
2022-08-05T04:18:03.776Z,5.20
2022-08-05T04:20:33.967Z,5.43
2022-08-05T04:23:01.153Z,4.30
2022-08-05T04:25:57.805Z,4.45
2022-08-05T04:28:15.147Z,4.75
2022-08-05T04:30:44.460Z,6.72
2022-08-05T04:33:12.479Z,5.13
2022-08-05T04:36:10.860Z,3.95
2022-08-05T04:38:39.778Z,6.28
2022-08-05T04:41:09.607Z,4.50
2022-08-05T04:43:40.597Z,4.82
2022-08-05T04:46:15.019Z,4.60
2022-08-05T04:48:58.030Z,6.18
2022-08-05T04:51:25.723Z,5.22
2022-08-05T04:53:57.347Z,5.38
2022-08-05T04:56:34.612Z,4.40
2022-08-05T04:59:24.293Z,5.07
2022-08-05T05:02:35.565Z,5.70
2022-08-05T05:04:44.197Z,4.50
2022-08-05T05:07:17.156Z,4.85
2022-08-05T05:09:45.394Z,4.35
2022-08-05T05:12:12.288Z,5.53
2022-08-05T05:14:49.097Z,4.65
2022-08-05T05:17:22.822Z,4.95
2022-08-05T05:19:54.663Z,4.97
2022-08-05T05:22:23.469Z,5.72
2022-08-05T05:24:58.513Z,4.43
2022-08-05T05:27:45.122Z,4.40
2022-08-05T05:30:15.294Z,4.25
2022-08-05T05:32:55.671Z,4.63
2022-08-05T05:35:23.081Z,3.67
2022-08-05T05:37:59.539Z,4.35
2022-08-05T05:40:28.781Z,3.22
2022-08-05T05:42:57.026Z,4.22
2022-08-05T05:45:24.680Z,5.45
2022-08-05T05:48:06.852Z,3.20
2022-08-05T05:50:41.220Z,3.30
2022-08-05T05:53:22.033Z,2.95
2022-08-05T05:55:52.012Z,5.93
2022-08-05T05:58:30.335Z,5.68
2022-08-05T06:01:02.220Z,2.80
2022-08-05T06:04:00.664Z,4.38
2022-08-05T06:06:27.968Z,3.60
2022-08-05T06:08:58.517Z,4.10
2022-08-05T06:11:26.106Z,3.30
2022-08-05T06:13:55.907Z,6.25
2022-08-05T06:16:30.281Z,2.80
2022-08-05T06:19:00.883Z,3.00
2022-08-05T06:21:37.020Z,2.90
2022-08-05T06:24:04.849Z,4.32
2022-08-05T06:26:33.775Z,4.13
2022-08-05T06:29:03.340Z,3.45
2022-08-05T06:31:32.230Z,11.50
2022-08-05T06:34:07.280Z,7.38
2022-08-05T06:36:53.541Z,4.03
2022-08-05T06:39:24.509Z,4.73
2022-08-05T06:41:51.942Z,6.10
2022-08-05T06:44:19.338Z,4.22
2022-08-05T06:46:50.710Z,2.88
2022-08-05T06:49:18.967Z,3.95
2022-08-05T06:51:48.613Z,4.43
2022-08-05T06:54:18.172Z,5.45
2022-08-05T06:56:54.896Z,6.18
2022-08-05T06:59:38.495Z,4.70
2022-08-05T07:02:06.214Z,3.30
2022-08-05T07:04:33.501Z,3.55
2022-08-05T07:07:03.805Z,5.70
2022-08-05T07:09:37.328Z,5.20
2022-08-05T07:12:07.824Z,2.87
2022-08-05T07:14:58.117Z,3.20
2022-08-05T07:18:01.975Z,2.95
2022-08-05T07:20:33.044Z,3.45
2022-08-05T07:23:01.097Z,3.97
2022-08-05T07:25:56.415Z,4.43
2022-08-05T07:28:18.660Z,3.55
2022-08-05T07:30:50.391Z,3.47
2022-08-05T07:33:35.262Z,3.85
2022-08-05T07:36:19.894Z,4.68
2022-08-05T07:38:48.979Z,2.67
2022-08-05T07:42:07.651Z,2.87
2022-08-05T07:44:14.229Z,4.13
2022-08-05T07:46:48.645Z,3.53
2022-08-05T07:49:18.170Z,3.78
2022-08-05T07:51:52.878Z,2.90
2022-08-05T07:54:26.752Z,4.23
2022-08-05T07:57:02.786Z,3.20
2022-08-05T07:59:46.833Z,3.63
2022-08-05T08:02:17.599Z,2.53
2022-08-05T08:04:46.384Z,4.18
2022-08-05T08:07:20.905Z,3.50
2022-08-05T08:09:49.513Z,3.13
2022-08-05T08:12:37.284Z,3.97
2022-08-05T08:15:14.122Z,3.20
2022-08-05T08:17:49.876Z,3.10
2022-08-05T08:21:01.031Z,3.15
2022-08-05T08:23:11.593Z,4.03
2022-08-05T08:26:00.895Z,4.63
2022-08-05T08:28:36.943Z,2.97
2022-08-05T08:31:18.517Z,3.08
2022-08-05T08:33:46.837Z,3.65
2022-08-05T08:36:38.161Z,3.63
2022-08-05T08:39:06.586Z,2.42
2022-08-05T08:41:52.009Z,4.00
2022-08-05T08:45:24.865Z,3.00
2022-08-05T08:47:47.626Z,2.77
2022-08-05T08:50:13.020Z,3.50
2022-08-05T08:52:53.503Z,4.75
2022-08-05T08:55:32.007Z,4.13
2022-08-05T08:58:08.692Z,3.33
2022-08-05T09:00:36.287Z,4.00
2022-08-05T09:03:05.902Z,2.13
2022-08-05T09:05:38.798Z,2.17
2022-08-05T09:08:26.656Z,3.63
2022-08-05T09:10:54.659Z,1.92
2022-08-05T09:13:23.589Z,3.78
2022-08-05T09:15:51.226Z,2.42
2022-08-05T09:18:18.569Z,2.50
2022-08-05T09:20:47.138Z,2.15
2022-08-05T09:23:19.506Z,2.10
2022-08-05T09:26:03.156Z,3.70
2022-08-05T09:28:33.464Z,2.83
2022-08-05T09:32:39.062Z,2.10
2022-08-05T09:33:53.247Z,1.80
2022-08-05T09:36:21.162Z,1.60
2022-08-05T09:38:58.477Z,1.80
2022-08-05T09:41:26.273Z,2.33
2022-08-05T09:44:00.228Z,2.37
2022-08-05T09:46:29.092Z,1.90
2022-08-05T09:49:06.883Z,2.30
2022-08-05T09:51:38.117Z,2.70
2022-08-05T09:54:08.600Z,2.00
2022-08-05T09:56:37.963Z,1.67
2022-08-05T09:59:05.126Z,2.10
2022-08-05T10:01:33.788Z,2.10
2022-08-05T10:04:10.138Z,1.90
2022-08-05T10:06:40.447Z,1.87
2022-08-05T10:09:28.303Z,1.70
2022-08-05T10:12:31.020Z,1.90
2022-08-05T10:15:13.473Z,2.33
2022-08-05T10:17:54.407Z,1.90
2022-08-05T10:20:24.132Z,3.80
2022-08-05T10:22:52.664Z,1.92
2022-08-05T10:25:19.933Z,1.80
2022-08-05T10:28:13.878Z,2.30
2022-08-05T10:31:20.685Z,1.90
2022-08-05T10:33:25.647Z,1.80
2022-08-05T10:35:59.775Z,2.30
2022-08-05T10:38:28.315Z,2.85
2022-08-05T10:41:15.768Z,2.40
2022-08-05T10:43:55.260Z,2.28
2022-08-05T10:46:23.936Z,2.40
2022-08-05T10:49:01.481Z,2.25
2022-08-05T10:51:57.601Z,1.83
2022-08-05T10:54:56.219Z,2.63
2022-08-05T10:57:31.780Z,1.70
2022-08-05T11:00:23.170Z,1.75
2022-08-05T11:03:25.915Z,2.35
2022-08-05T11:06:15.284Z,1.80
2022-08-05T11:09:03.361Z,2.20
2022-08-05T11:11:44.451Z,1.95
2022-08-05T11:18:00.417Z,1.90
2022-08-05T11:20:34.291Z,2.75
2022-08-05T11:23:21.935Z,2.00
2022-08-05T11:26:09.328Z,2.70
2022-08-05T11:28:37.146Z,2.13
2022-08-05T11:31:06.197Z,2.00
2022-08-05T11:33:43.902Z,2.00
2022-08-05T11:36:14.919Z,1.90
2022-08-05T11:38:45.663Z,2.10
2022-08-05T11:41:54.592Z,2.40
2022-08-05T11:44:08.439Z,2.00
2022-08-05T11:46:58.607Z,1.90
2022-08-05T11:49:26.387Z,1.90
2022-08-05T11:51:54.004Z,2.13
2022-08-05T11:54:33.271Z,2.97
2022-08-05T11:57:02.201Z,2.17
2022-08-05T11:59:49.804Z,2.28
2022-08-05T12:02:30.081Z,2.10
2022-08-05T12:05:00.060Z,1.65
2022-08-05T12:08:10.228Z,2.35
2022-08-05T12:10:18.672Z,3.40
2022-08-05T12:12:59.513Z,2.00
2022-08-05T12:15:38.198Z,2.13
2022-08-05T12:18:11.030Z,2.20
2022-08-05T12:20:39.206Z,2.15
2022-08-05T12:23:10.750Z,2.60
2022-08-05T12:25:56.605Z,2.33
2022-08-05T12:28:39.769Z,2.43
2022-08-05T12:31:07.891Z,2.55
2022-08-05T12:33:36.546Z,2.25
2022-08-05T12:36:07.944Z,2.40
2022-08-05T12:38:36.967Z,2.85
2022-08-05T12:41:04.512Z,2.57
2022-08-05T12:43:31.962Z,2.83
2022-08-05T12:45:59.399Z,2.45
2022-08-05T12:48:27.651Z,2.70
2022-08-05T12:52:10.495Z,3.00
2022-08-05T12:54:01.647Z,2.47
2022-08-05T12:56:35.029Z,2.60
2022-08-05T12:59:27.472Z,2.72
2022-08-05T13:02:10.137Z,2.35
2022-08-05T13:04:41.606Z,3.03
2022-08-05T13:07:47.460Z,2.30
2022-08-05T13:10:11.933Z,2.28
2022-08-05T13:12:50.782Z,2.40
2022-08-05T13:15:36.137Z,2.58
2022-08-05T13:18:19.731Z,4.00
2022-08-05T13:20:49.212Z,2.20
2022-08-05T13:23:18.219Z,2.40
2022-08-05T13:25:51.854Z,2.47
2022-08-05T13:28:27.241Z,2.33
2022-08-05T13:30:54.351Z,2.50
2022-08-05T13:34:23.398Z,3.13
2022-08-05T13:36:09.644Z,2.67
2022-08-05T13:38:41.899Z,2.63
2022-08-05T13:41:10.932Z,2.42
2022-08-05T13:43:44.433Z,2.45
2022-08-05T13:46:43.955Z,2.60
2022-08-05T13:49:10.335Z,2.53
2022-08-05T13:51:40.894Z,2.53
2022-08-05T13:54:12.051Z,2.58
2022-08-05T13:56:50.462Z,2.75
2022-08-05T13:59:24.866Z,3.10
2022-08-05T14:01:59.151Z,3.10
2022-08-05T14:04:49.872Z,2.80
2022-08-05T14:07:25.451Z,2.97
2022-08-05T14:10:08.395Z,3.22
2022-08-05T14:12:36.433Z,2.75
2022-08-05T14:16:03.964Z,2.80
2022-08-05T14:17:51.264Z,3.70
2022-08-05T14:20:27.392Z,2.40
2022-08-05T14:22:55.288Z,2.20
2022-08-05T14:25:28.045Z,2.92
2022-08-05T14:27:55.881Z,3.10
2022-08-05T14:30:26.400Z,2.72
2022-08-05T14:32:54.367Z,2.45
2022-08-05T14:35:23.887Z,2.23
2022-08-05T14:38:04.644Z,2.72
2022-08-05T14:40:31.836Z,2.33
2022-08-05T14:43:01.381Z,3.27
2022-08-05T14:45:28.491Z,1.95
2022-08-05T14:48:05.572Z,2.20
2022-08-05T14:50:39.803Z,3.08
2022-08-05T14:53:08.021Z,2.33
2022-08-05T14:55:39.671Z,1.90
2022-08-05T14:58:10.995Z,2.00
2022-08-05T15:00:59.717Z,2.72
2022-08-05T15:03:33.979Z,1.90
2022-08-05T15:06:07.891Z,2.20
2022-08-05T15:08:59.752Z,3.85
2022-08-05T15:11:52.348Z,3.70
2022-08-05T15:14:33.314Z,2.00
2022-08-05T15:17:01.323Z,1.70
2022-08-05T15:19:28.491Z,2.15
2022-08-05T15:21:59.879Z,1.70
2022-08-05T15:24:27.706Z,1.90
2022-08-05T15:26:55.790Z,3.60
2022-08-05T15:29:23.452Z,3.13
2022-08-05T15:31:52.890Z,1.92
2022-08-05T15:34:31.952Z,2.33
2022-08-05T15:37:03.518Z,3.65
2022-08-05T15:40:58.489Z,1.73
2022-08-05T15:42:54.165Z,1.95
2022-08-05T15:45:11.292Z,4.40
2022-08-05T15:47:38.916Z,2.25
2022-08-05T15:50:07.212Z,2.85
2022-08-05T15:52:54.733Z,2.45
2022-08-05T15:55:24.818Z,1.92
2022-08-05T15:57:52.521Z,3.17
2022-08-05T16:00:26.213Z,2.45
2022-08-05T16:03:00.155Z,2.10
2022-08-05T16:05:28.220Z,2.78
2022-08-05T16:07:57.165Z,1.95
2022-08-05T16:10:25.636Z,2.03
2022-08-05T16:12:56.015Z,2.03
2022-08-05T16:15:23.632Z,3.60
2022-08-05T16:17:58.048Z,2.53
2022-08-05T16:20:25.623Z,2.30
2022-08-05T16:22:55.302Z,2.80
2022-08-05T16:25:26.845Z,2.38
2022-08-05T16:28:05.910Z,2.45
2022-08-05T16:30:34.440Z,2.50
2022-08-05T16:33:04.020Z,2.33
2022-08-05T16:35:33.704Z,3.35
2022-08-05T16:38:24.606Z,3.00
2022-08-05T16:40:55.458Z,4.57
2022-08-05T16:43:23.696Z,2.83
2022-08-05T16:46:07.691Z,2.35
2022-08-05T16:48:38.958Z,2.30
2022-08-05T16:51:09.257Z,2.10
2022-08-05T16:54:04.147Z,4.18
2022-08-05T16:56:24.625Z,2.58
2022-08-05T16:58:51.782Z,2.20
2022-08-05T17:01:19.328Z,2.85
2022-08-05T17:03:46.637Z,2.75
2022-08-05T17:06:16.362Z,3.03
2022-08-05T17:08:52.788Z,2.40
2022-08-05T17:11:23.463Z,2.20
2022-08-05T17:13:51.461Z,2.50
2022-08-05T17:16:32.577Z,2.03
2022-08-05T17:19:00.343Z,2.67
2022-08-05T17:21:35.620Z,2.30
2022-08-05T17:24:18.397Z,2.20
2022-08-05T17:26:47.589Z,2.78
2022-08-05T17:29:14.978Z,2.47
2022-08-05T17:31:56.943Z,3.05
2022-08-05T17:34:29.837Z,2.40
2022-08-05T17:36:59.523Z,2.38
2022-08-05T17:39:34.081Z,2.80
2022-08-05T17:42:17.296Z,2.85
2022-08-05T17:44:50.375Z,2.30
2022-08-05T17:47:22.506Z,2.45
2022-08-05T17:50:04.370Z,2.38
2022-08-05T17:52:53.091Z,2.50
2022-08-05T17:55:22.673Z,2.80
2022-08-05T17:57:54.663Z,3.50
2022-08-05T18:00:21.817Z,3.50
2022-08-05T18:02:57.028Z,2.70
2022-08-05T18:05:28.101Z,2.95
2022-08-05T18:07:56.714Z,5.10
2022-08-05T18:10:24.230Z,3.43
2022-08-05T18:12:51.600Z,3.10
2022-08-05T18:15:18.968Z,4.07
2022-08-05T18:18:00.830Z,2.85
2022-08-05T18:20:31.646Z,3.53
2022-08-05T18:23:00.735Z,2.88
2022-08-05T18:25:38.740Z,2.80
2022-08-05T18:28:06.566Z,3.05
2022-08-05T18:30:34.150Z,2.80
2022-08-05T18:33:01.763Z,3.25
2022-08-05T18:36:01.399Z,3.15
2022-08-05T18:38:19.332Z,3.40
2022-08-05T18:41:55.015Z,3.03
2022-08-05T18:43:43.272Z,2.90
2022-08-05T18:46:19.924Z,3.10
2022-08-05T18:48:48.227Z,3.10
2022-08-05T18:52:04.542Z,3.17
2022-08-05T18:54:28.374Z,4.10
2022-08-05T18:56:58.020Z,3.33
2022-08-05T18:59:43.686Z,3.15
2022-08-05T19:02:28.037Z,4.72
2022-08-05T19:05:02.885Z,3.95
2022-08-05T19:07:46.284Z,3.67
2022-08-05T19:10:14.374Z,3.22
2022-08-05T19:12:41.723Z,3.20
2022-08-05T19:15:58.350Z,3.65
2022-08-05T19:18:08.739Z,3.72
2022-08-05T19:20:37.098Z,3.72
2022-08-05T19:23:22.486Z,3.58
2022-08-05T19:26:01.212Z,3.15
2022-08-05T19:28:30.199Z,3.30
2022-08-05T19:30:57.523Z,4.07
2022-08-05T19:33:36.418Z,3.57
2022-08-05T19:36:06.533Z,3.67
2022-08-05T19:38:35.578Z,3.58
2022-08-05T19:41:06.687Z,5.05
2022-08-05T19:44:06.461Z,4.72
2022-08-05T19:46:29.539Z,4.85
2022-08-05T19:49:01.278Z,4.03
2022-08-05T19:52:04.299Z,4.30
2022-08-05T19:54:26.706Z,4.40
2022-08-05T19:56:58.160Z,4.90
2022-08-05T19:59:56.657Z,5.95
2022-08-05T20:02:14.433Z,4.80
2022-08-05T20:04:43.114Z,4.75
2022-08-05T20:07:13.231Z,5.03
2022-08-05T20:09:53.845Z,5.82
2022-08-05T20:12:23.710Z,5.53
2022-08-05T20:14:52.323Z,9.80
2022-08-05T20:17:19.866Z,6.82
2022-08-05T20:19:50.966Z,8.15
2022-08-05T20:22:26.683Z,7.90
2022-08-05T20:24:54.584Z,7.22
2022-08-05T20:27:26.677Z,9.32
2022-08-05T20:29:57.841Z,8.80
2022-08-05T20:32:27.110Z,8.18
2022-08-05T20:34:54.848Z,7.00
2022-08-05T20:38:05.017Z,8.50
2022-08-05T20:40:09.938Z,7.33
2022-08-05T20:42:37.219Z,8.02
2022-08-05T20:45:05.442Z,7.65
2022-08-05T20:47:33.317Z,7.10
2022-08-05T20:50:01.970Z,7.30
2022-08-05T20:52:29.766Z,7.03
2022-08-05T20:55:15.810Z,8.70
2022-08-05T20:57:44.981Z,6.85
2022-08-05T21:00:41.270Z,6.97
2022-08-05T21:03:06.225Z,7.18
2022-08-05T21:05:48.229Z,7.28
2022-08-05T21:08:26.568Z,8.03
2022-08-05T21:11:00.314Z,8.77
2022-08-05T21:13:48.033Z,11.85
2022-08-05T21:16:14.018Z,10.35
2022-08-05T21:18:42.880Z,8.90
2022-08-05T21:21:12.542Z,10.40
2022-08-05T21:23:39.654Z,9.85
2022-08-05T21:26:12.481Z,14.32
2022-08-05T21:28:47.634Z,15.68
2022-08-05T21:31:18.053Z,14.23
2022-08-05T21:33:47.931Z,12.50
2022-08-05T21:36:27.588Z,12.32
2022-08-05T21:38:56.582Z,12.30
2022-08-05T21:41:23.855Z,13.97
2022-08-05T21:44:03.704Z,14.15
2022-08-05T21:46:34.635Z,13.45
2022-08-05T21:49:02.303Z,14.90
2022-08-05T21:52:21.530Z,11.83
2022-08-05T21:54:30.604Z,15.82
2022-08-05T21:57:29.222Z,13.35
2022-08-05T22:00:02.123Z,11.25
2022-08-05T22:02:32.431Z,9.88
2022-08-05T22:05:00.733Z,10.75
2022-08-05T22:07:40.101Z,8.23
2022-08-05T22:10:16.923Z,8.27
2022-08-05T22:12:45.010Z,8.13
2022-08-05T22:16:00.685Z,7.55
2022-08-05T22:18:06.035Z,9.30
2022-08-05T22:20:39.110Z,6.78
2022-08-05T22:24:01.815Z,5.70
2022-08-05T22:26:34.161Z,4.95
2022-08-05T22:29:02.702Z,5.03
2022-08-05T22:31:31.599Z,3.50
2022-08-05T22:34:12.919Z,3.53
2022-08-05T22:36:52.767Z,4.85
2022-08-05T22:39:21.529Z,6.22
2022-08-05T22:42:09.546Z,8.00
2022-08-05T22:44:36.130Z,4.75
2022-08-05T22:47:04.994Z,5.00
2022-08-05T22:50:18.062Z,5.10
2022-08-05T22:52:30.223Z,4.22
2022-08-05T22:55:00.128Z,5.53
2022-08-05T22:57:27.276Z,4.77
2022-08-05T23:00:03.406Z,4.88
2022-08-05T23:02:30.772Z,7.93
2022-08-05T23:05:01.837Z,4.50
2022-08-05T23:07:32.285Z,4.82
2022-08-05T23:10:01.472Z,5.28
2022-08-05T23:12:32.366Z,5.23
2022-08-05T23:15:03.353Z,4.47
2022-08-05T23:17:34.529Z,6.10
2022-08-05T23:20:05.589Z,3.92
2022-08-05T23:22:37.762Z,5.45
2022-08-05T23:25:07.300Z,4.03
2022-08-05T23:27:57.838Z,3.78
2022-08-05T23:30:27.159Z,4.63
2022-08-05T23:32:58.774Z,3.63
2022-08-05T23:35:28.626Z,4.43
2022-08-05T23:38:01.698Z,4.00
2022-08-05T23:40:28.889Z,3.60
2022-08-05T23:42:55.994Z,4.40
2022-08-05T23:45:23.737Z,4.28
2022-08-05T23:47:53.642Z,4.20
2022-08-05T23:50:26.659Z,5.77
2022-08-05T23:52:55.305Z,4.33
2022-08-05T23:55:30.932Z,4.22
2022-08-05T23:57:58.807Z,5.27
